ADDS METAR Data INFO
IDs: Format: Raw Decoded Include TAF

Data at: 1407 UTC 12 Dec 2017

K33V 121355Z AUTO 00000KT 10SM CLR M13/M16 A3055 RMK AO1
K33V 121335Z AUTO 14006KT 10SM CLR M13/M16 A3055 RMK AO1
K33V 121315Z AUTO 09004KT 10SM CLR M14/M17 A3055 RMK AO1
K33V 121255Z AUTO 13005KT 10SM CLR M14/M17 A3055 RMK AO1
K33V 121235Z AUTO 15007KT 10SM CLR M13/M16 A3055 RMK AO1
K33V 121215Z AUTO 00000KT 10SM CLR M13/M16 A3055 RMK AO1
K33V 121155Z AUTO 15003KT 10SM CLR M12/M16 A3055 RMK AO1
K33V 121135Z AUTO 12005KT 10SM CLR M13/M16 A3055 RMK AO1
K33V 121115Z AUTO 13003KT 10SM CLR M14/M17 A3055 RMK AO1
K33V 121055Z AUTO 00000KT 10SM CLR M13/M16 A3056 RMK AO1
K33V 121035Z AUTO 00000KT 10SM CLR M12/M16 A3056 RMK AO1
K33V 121015Z AUTO 00000KT 10SM CLR M13/M16 A3056 RMK AO1
K33V 120955Z AUTO 00000KT 10SM CLR M13/M16 A3056 RMK AO1
K33V 120935Z AUTO 00000KT 10SM CLR M12/M17 A3057 RMK AO1
K33V 120915Z AUTO 17004KT 10SM CLR M11/M16 A3057 RMK AO1
K33V 120855Z AUTO 15004KT 10SM CLR M11/M16 A3056 RMK AO1
K33V 120835Z AUTO 14006KT 10SM CLR M12/M16 A3056 RMK AO1
K33V 120815Z AUTO 14007KT 10SM CLR M11/M16 A3056 RMK AO1
K33V 120755Z AUTO 15005KT 10SM CLR M12/M16 A3056 RMK AO1
K33V 120735Z AUTO 14007KT 10SM CLR M13/M16 A3056 RMK AO1
K33V 120715Z AUTO 13008KT 10SM CLR M12/M16 A3056 RMK AO1
K33V 120655Z AUTO 13006KT 10SM CLR M12/M16 A3056 RMK AO1
K33V 120635Z AUTO 14007KT 10SM CLR M11/M16 A3055 RMK AO1
K33V 120615Z AUTO 14005KT 10SM CLR M10/M15 A3055 RMK AO1
K33V 120555Z AUTO 13004KT 10SM CLR M10/M15 A3055 RMK AO1
K33V 120535Z AUTO 14005KT 10SM CLR M10/M15 A3055 RMK AO1
K33V 120515Z AUTO 15005KT 10SM CLR M10/M15 A3055 RMK AO1
K33V 120455Z AUTO 15006KT 10SM CLR M10/M15 A3055 RMK AO1
K33V 120435Z AUTO 13006KT 10SM CLR M11/M16 A3054 RMK AO1
K33V 120415Z AUTO 12007KT 10SM CLR M11/M16 A3054 RMK AO1
K33V 120355Z AUTO 14008KT 10SM CLR M10/M15 A3054 RMK AO1
K33V 120335Z AUTO 14008KT 10SM CLR M10/M15 A3054 RMK AO1
K33V 120315Z AUTO 13008KT 10SM CLR M10/M15 A3054 RMK AO1
K33V 120255Z AUTO 14008KT 10SM CLR M10/M15 A3054 RMK AO1
K33V 120235Z AUTO 14008KT 10SM CLR M09/M15 A3054 RMK AO1
K33V 120215Z AUTO 13010KT 10SM CLR M08/M14 A3054 RMK AO1
K33V 120155Z AUTO 14007KT 10SM CLR M07/M13 A3054 RMK AO1
K33V 120135Z AUTO 17003KT 10SM CLR M07/M13 A3054 RMK AO1
K33V 120115Z AUTO 14005KT 10SM CLR M05/M13 A3053 RMK AO1
K33V 120055Z AUTO 06003KT 10SM CLR M05/M13 A3053 RMK AO1
K33V 120035Z AUTO 04006KT 10SM CLR M05/M14 A3053 RMK AO1
K33V 120015Z AUTO 02008KT 10SM CLR M04/M14 A3053 RMK AO1
K33V 112355Z AUTO 02006KT 10SM CLR M01/M14 A3052 RMK AO1
K33V 112335Z AUTO 01005KT 10SM CLR 00/M12 A3051 RMK AO1
K33V 112315Z AUTO 00000KT 10SM CLR 03/M11 A3051 RMK AO1
K33V 112255Z AUTO 31003KT 10SM CLR 03/M12 A3050 RMK AO1
K33V 112235Z AUTO 00000KT 10SM CLR 04/M13 A3050 RMK AO1
K33V 112215Z AUTO 00000KT 10SM CLR 04/M13 A3050 RMK AO1
K33V 112155Z AUTO 00000KT 10SM CLR 04/M13 A3050 RMK AO1
K33V 112135Z AUTO 00000KT 10SM CLR 04/M13 A3050 RMK AO1
K33V 112115Z AUTO 00000KT 10SM CLR 04/M12 A3049 RMK AO1
K33V 112055Z AUTO 31003KT 10SM CLR 03/M13 A3049 RMK AO1
K33V 112035Z AUTO 00000KT 10SM CLR 03/M13 A3048 RMK AO1
K33V 112015Z AUTO 00000KT 10SM CLR 02/M13 A3048 RMK AO1
K33V 111955Z AUTO 33003KT 10SM CLR 01/M12 A3049 RMK AO1
K33V 111935Z AUTO 00000KT 10SM CLR 01/M12 A3049 RMK AO1
K33V 111915Z AUTO 00000KT 10SM CLR 00/M13 A3049 RMK AO1
K33V 111855Z AUTO 00000KT 10SM CLR M01/M13 A3050 RMK AO1
K33V 111835Z AUTO 00000KT 10SM CLR M01/M13 A3051 RMK AO1
K33V 111815Z AUTO 00000KT 10SM CLR M01/M13 A3051 RMK AO1
K33V 111755Z AUTO 00000KT 10SM CLR M03/M14 A3052 RMK AO1
K33V 111735Z AUTO 00000KT 10SM CLR M05/M15 A3053 RMK AO1
K33V 111715Z AUTO 00000KT 10SM CLR M07/M15 A3052 RMK AO1
K33V 111655Z AUTO 00000KT 10SM CLR M09/M17 A3053 RMK AO1
K33V 111635Z AUTO 00000KT 10SM CLR M07/M16 A3053 RMK AO1
K33V 111615Z AUTO 15003KT 10SM CLR M09/M17 A3052 RMK AO1
K33V 111555Z AUTO 00000KT 10SM CLR M12/M19 A3052 RMK AO1
K33V 111535Z AUTO 15006KT 10SM CLR M11/M19 A3052 RMK AO1
K33V 111515Z AUTO 14005KT 10SM CLR M14/M20 A3052 RMK AO1
K33V 111455Z AUTO 14005KT 10SM CLR M14/M20 A3052 RMK AO1
K33V 111435Z AUTO 14005KT 10SM CLR M14/M19 A3051 RMK AO1
K33V 111415Z AUTO 11003KT 10SM CLR M16/M21 A3051 RMK AO1
K33V 111355Z AUTO 10003KT 10SM CLR M17/M21 A3051 RMK AO1
K33V 111335Z AUTO 14006KT 10SM CLR M17/M21 A3051 RMK AO1
K33V 111315Z AUTO 14006KT 10SM CLR M17/M21 A3052 RMK AO1
K33V 111255Z AUTO 00000KT 10SM CLR M17/M20 A3052 RMK AO1
K33V 111235Z AUTO 33005KT 10SM CLR M16/M21 A3052 RMK AO1
K33V 111215Z AUTO 00000KT 10SM CLR M16/M22 A3051 RMK AO1
K33V 111155Z AUTO 13007KT 10SM CLR M17/M21 A3052 RMK AO1
K33V 111135Z AUTO 13006KT 10SM CLR M14/M19 A3052 RMK AO1
K33V 111115Z AUTO 13006KT 10SM CLR M13/M19 A3051 RMK AO1
K33V 111055Z AUTO 12007KT 10SM CLR M16/M21 A3052 RMK AO1
K33V 111035Z AUTO 14007KT 10SM CLR M14/M19 A3053 RMK AO1
K33V 111015Z AUTO 14006KT 10SM CLR M16/M21 A3053 RMK AO1
K33V 110955Z AUTO 13006KT 10SM CLR M16/M20 A3053 RMK AO1
K33V 110935Z AUTO 14006KT 10SM CLR M16/M20 A3054 RMK AO1
K33V 110915Z AUTO 14005KT 10SM CLR M16/M21 A3054 RMK AO1
K33V 110855Z AUTO 14003KT 10SM CLR M13/M19 A3054 RMK AO1
K33V 110835Z AUTO 00000KT 10SM CLR M13/M19 A3054 RMK AO1
K33V 110815Z AUTO 00000KT 10SM CLR M14/M19 A3054 RMK AO1
K33V 110755Z AUTO 15008KT 10SM CLR M13/M19 A3053 RMK AO1
K33V 110735Z AUTO 15007KT 10SM CLR M12/M18 A3053 RMK AO1
K33V 110715Z AUTO 13007KT 10SM CLR M13/M18 A3054 RMK AO1
K33V 110655Z AUTO 13007KT 10SM CLR M13/M18 A3053 RMK AO1
K33V 110635Z AUTO 14006KT 10SM CLR M13/M18 A3054 RMK AO1
K33V 110615Z AUTO 14007KT 10SM CLR M12/M18 A3053 RMK AO1
K33V 110555Z AUTO 14007KT 10SM CLR M10/M18 A3053 RMK AO1
K33V 110535Z AUTO 05003KT 10SM CLR M11/M18 A3054 RMK AO1
K33V 110515Z AUTO 15008KT 10SM CLR M12/M18 A3051 RMK AO1
K33V 110455Z AUTO 14008KT 10SM CLR M13/M18 A3051 RMK AO1
K33V 110435Z AUTO 13008KT 10SM CLR M13/M18 A3053 RMK AO1
K33V 110415Z AUTO 17005KT 10SM CLR M08/M17 A3053 RMK AO1
K33V 110355Z AUTO 19004KT 10SM CLR M11/M17 A3053 RMK AO1
K33V 110335Z AUTO 17003KT 10SM CLR M10/M16 A3054 RMK AO1
K33V 110315Z AUTO 13008KT 10SM CLR M10/M16 A3052 RMK AO1
K33V 110255Z AUTO 14006KT 10SM CLR M10/M16 A3052 RMK AO1
K33V 110235Z AUTO 12006KT 10SM CLR M09/M16 A3052 RMK AO1
K33V 110215Z AUTO 15006KT 10SM CLR M09/M17 A3052 RMK AO1